sensor_id;sensor_type;location;lat;lon;timestamp;pressure;altitude;pressure_sealevel;temperature;humidity
12178;BME280;6152;48.728;9.256;2023-03-26T00:01:09;96624.00;;;6.83;100.00
12178;BME280;6152;48.728;9.256;2023-03-26T00:03:36;96628.59;;;6.78;100.00
12178;BME280;6152;48.728;9.256;2023-03-26T00:06:10;96629.63;;;6.75;100.00
12178;BME280;6152;48.728;9.256;2023-03-26T00:08:39;96629.91;;;6.69;100.00
12178;BME280;6152;48.728;9.256;2023-03-26T00:11:07;96632.59;;;6.68;100.00
12178;BME280;6152;48.728;9.256;2023-03-26T00:13:34;96627.59;;;6.65;100.00
12178;BME280;6152;48.728;9.256;2023-03-26T00:16:01;96618.50;;;6.57;100.00
12178;BME280;6152;48.728;9.256;2023-03-26T00:18:28;96617.88;;;6.52;100.00
12178;BME280;6152;48.728;9.256;2023-03-26T00:20:58;96621.69;;;6.45;100.00
12178;BME280;6152;48.728;9.256;2023-03-26T00:23:25;96621.03;;;6.42;100.00
12178;BME280;6152;48.728;9.256;2023-03-26T00:25:52;96613.38;;;6.40;100.00
12178;BME280;6152;48.728;9.256;2023-03-26T00:28:19;96623.78;;;6.39;100.00
12178;BME280;6152;48.728;9.256;2023-03-26T00:30:47;96632.38;;;6.39;100.00
12178;BME280;6152;48.728;9.256;2023-03-26T00:33:14;96639.22;;;6.40;100.00
12178;BME280;6152;48.728;9.256;2023-03-26T00:35:43;96630.53;;;6.41;100.00
12178;BME280;6152;48.728;9.256;2023-03-26T00:38:13;96634.03;;;6.40;100.00
12178;BME280;6152;48.728;9.256;2023-03-26T00:40:39;96635.69;;;6.41;100.00
12178;BME280;6152;48.728;9.256;2023-03-26T00:43:09;96632.31;;;6.41;100.00
12178;BME280;6152;48.728;9.256;2023-03-26T00:45:48;96630.69;;;6.38;100.00
12178;BME280;6152;48.728;9.256;2023-03-26T00:48:15;96625.69;;;6.35;100.00
12178;BME280;6152;48.728;9.256;2023-03-26T00:50:43;96617.09;;;6.35;100.00
12178;BME280;6152;48.728;9.256;2023-03-26T00:53:09;96614.50;;;6.35;100.00
12178;BME280;6152;48.728;9.256;2023-03-26T00:55:45;96621.44;;;6.34;100.00
12178;BME280;6152;48.728;9.256;2023-03-26T00:58:12;96607.84;;;6.31;100.00
12178;BME280;6152;48.728;9.256;2023-03-26T01:00:46;96607.84;;;6.31;100.00
12178;BME280;6152;48.728;9.256;2023-03-26T01:03:14;96609.75;;;6.27;100.00
12178;BME280;6152;48.728;9.256;2023-03-26T01:08:30;96589.22;;;6.24;100.00
12178;BME280;6152;48.728;9.256;2023-03-26T01:11:00;96589.22;;;6.24;100.00
12178;BME280;6152;48.728;9.256;2023-03-26T01:13:36;96577.16;;;6.25;100.00
12178;BME280;6152;48.728;9.256;2023-03-26T01:16:06;96579.06;;;6.21;100.00
12178;BME280;6152;48.728;9.256;2023-03-26T01:18:35;96581.63;;;6.21;100.00
12178;BME280;6152;48.728;9.256;2023-03-26T01:21:07;96572.97;;;6.22;100.00
12178;BME280;6152;48.728;9.256;2023-03-26T01:23:46;96567.81;;;6.22;100.00
12178;BME280;6152;48.728;9.256;2023-03-26T01:28:55;96548.06;;;6.21;100.00
12178;BME280;6152;48.728;9.256;2023-03-26T01:31:47;96555.63;;;6.24;100.00
12178;BME280;6152;48.728;9.256;2023-03-26T01:34:33;96560.66;;;6.27;100.00
12178;BME280;6152;48.728;9.256;2023-03-26T01:37:23;96555.34;;;6.30;100.00
12178;BME280;6152;48.728;9.256;2023-03-26T01:39:54;96539.84;;;6.30;100.00
12178;BME280;6152;48.728;9.256;2023-03-26T01:42:35;96543.25;;;6.31;100.00
12178;BME280;6152;48.728;9.256;2023-03-26T01:45:20;96532.66;;;6.35;100.00
12178;BME280;6152;48.728;9.256;2023-03-26T01:47:49;96522.31;;;6.35;100.00
12178;BME280;6152;48.728;9.256;2023-03-26T01:50:15;96522.31;;;6.35;100.00
12178;BME280;6152;48.728;9.256;2023-03-26T01:52:41;96518.09;;;6.34;100.00
12178;BME280;6152;48.728;9.256;2023-03-26T01:55:08;96512.94;;;6.34;100.00
12178;BME280;6152;48.728;9.256;2023-03-26T01:57:59;96519.00;;;6.33;100.00
12178;BME280;6152;48.728;9.256;2023-03-26T02:00:41;96507.75;;;6.34;100.00
12178;BME280;6152;48.728;9.256;2023-03-26T02:03:34;96503.50;;;6.33;100.00
12178;BME280;6152;48.728;9.256;2023-03-26T02:06:09;96497.41;;;6.34;100.00
12178;BME280;6152;48.728;9.256;2023-03-26T02:08:46;96485.31;;;6.35;100.00
12178;BME280;6152;48.728;9.256;2023-03-26T02:11:17;96483.56;;;6.35;100.00
12178;BME280;6152;48.728;9.256;2023-03-26T02:13:44;96483.50;;;6.37;100.00
12178;BME280;6152;48.728;9.256;2023-03-26T02:16:15;96477.66;;;6.33;100.00
12178;BME280;6152;48.728;9.256;2023-03-26T02:18:43;96470.81;;;6.32;100.00
12178;BME280;6152;48.728;9.256;2023-03-26T02:21:21;96463.16;;;6.31;100.00
12178;BME280;6152;48.728;9.256;2023-03-26T02:23:49;96465.75;;;6.31;100.00
12178;BME280;6152;48.728;9.256;2023-03-26T02:26:23;96453.81;;;6.28;100.00
12178;BME280;6152;48.728;9.256;2023-03-26T02:28:49;96453.63;;;6.31;100.00
12178;BME280;6152;48.728;9.256;2023-03-26T02:31:15;96443.47;;;6.28;100.00
12178;BME280;6152;48.728;9.256;2023-03-26T02:33:44;96450.38;;;6.28;100.00
12178;BME280;6152;48.728;9.256;2023-03-26T02:36:12;96444.53;;;6.24;100.00
12178;BME280;6152;48.728;9.256;2023-03-26T02:38:39;96454.97;;;6.23;100.00
12178;BME280;6152;48.728;9.256;2023-03-26T02:41:06;96447.28;;;6.21;100.00
12178;BME280;6152;48.728;9.256;2023-03-26T02:43:33;96446.47;;;6.21;100.00
12178;BME280;6152;48.728;9.256;2023-03-26T02:45:59;96447.47;;;6.18;100.00
12178;BME280;6152;48.728;9.256;2023-03-26T02:48:25;96443.81;;;6.22;100.00
12178;BME280;6152;48.728;9.256;2023-03-26T02:50:52;96437.81;;;6.22;100.00
12178;BME280;6152;48.728;9.256;2023-03-26T02:53:19;96436.97;;;6.21;100.00
12178;BME280;6152;48.728;9.256;2023-03-26T02:55:57;96429.97;;;6.23;100.00
12178;BME280;6152;48.728;9.256;2023-03-26T02:58:24;96428.06;;;6.27;100.00
12178;BME280;6152;48.728;9.256;2023-03-26T03:00:54;96427.97;;;6.28;100.00
12178;BME280;6152;48.728;9.256;2023-03-26T03:03:25;96415.81;;;6.30;100.00
12178;BME280;6152;48.728;9.256;2023-03-26T03:05:53;96421.72;;;6.32;100.00
12178;BME280;6152;48.728;9.256;2023-03-26T03:08:21;96404.28;;;6.36;100.00
12178;BME280;6152;48.728;9.256;2023-03-26T03:11:14;96399.78;;;6.39;100.00
12178;BME280;6152;48.728;9.256;2023-03-26T03:13:41;96396.31;;;6.40;100.00
12178;BME280;6152;48.728;9.256;2023-03-26T03:16:08;96383.28;;;6.42;100.00
12178;BME280;6152;48.728;9.256;2023-03-26T03:18:35;96387.47;;;6.44;100.00
12178;BME280;6152;48.728;9.256;2023-03-26T03:21:02;96375.34;;;6.45;100.00
12178;BME280;6152;48.728;9.256;2023-03-26T03:23:28;96376.00;;;6.48;100.00
12178;BME280;6152;48.728;9.256;2023-03-26T03:25:55;96371.78;;;6.47;100.00
12178;BME280;6152;48.728;9.256;2023-03-26T03:28:23;96364.69;;;6.51;100.00
12178;BME280;6152;48.728;9.256;2023-03-26T03:30:49;96366.25;;;6.53;100.00
12178;BME280;6152;48.728;9.256;2023-03-26T03:33:19;96359.25;;;6.55;100.00
12178;BME280;6152;48.728;9.256;2023-03-26T03:35:47;96357.41;;;6.57;100.00
12178;BME280;6152;48.728;9.256;2023-03-26T03:38:17;96346.25;;;6.57;100.00
12178;BME280;6152;48.728;9.256;2023-03-26T03:40:44;96348.72;;;6.58;100.00
12178;BME280;6152;48.728;9.256;2023-03-26T03:43:10;96350.41;;;6.59;100.00
12178;BME280;6152;48.728;9.256;2023-03-26T03:45:36;96341.72;;;6.60;100.00
12178;BME280;6152;48.728;9.256;2023-03-26T03:48:02;96338.22;;;6.62;100.00
12178;BME280;6152;48.728;9.256;2023-03-26T03:50:29;96342.38;;;6.64;100.00
12178;BME280;6152;48.728;9.256;2023-03-26T03:52:56;96334.53;;;6.66;100.00
12178;BME280;6152;48.728;9.256;2023-03-26T03:55:24;96344.88;;;6.66;100.00
12178;BME280;6152;48.728;9.256;2023-03-26T03:57:52;96331.22;;;6.64;100.00
12178;BME280;6152;48.728;9.256;2023-03-26T04:00:19;96332.88;;;6.65;100.00
12178;BME280;6152;48.728;9.256;2023-03-26T04:02:45;96327.91;;;6.62;100.00
12178;BME280;6152;48.728;9.256;2023-03-26T04:05:11;96328.69;;;6.62;100.00
12178;BME280;6152;48.728;9.256;2023-03-26T04:07:38;96323.47;;;6.64;100.00
12178;BME280;6152;48.728;9.256;2023-03-26T04:10:06;96314.22;;;6.59;100.00
12178;BME280;6152;48.728;9.256;2023-03-26T04:12:32;96310.91;;;6.57;100.00
12178;BME280;6152;48.728;9.256;2023-03-26T04:14:58;96311.81;;;6.56;100.00
12178;BME280;6152;48.728;9.256;2023-03-26T04:17:25;96303.22;;;6.56;100.00
12178;BME280;6152;48.728;9.256;2023-03-26T04:19:52;96305.91;;;6.54;100.00
12178;BME280;6152;48.728;9.256;2023-03-26T04:22:20;96297.31;;;6.54;100.00
12178;BME280;6152;48.728;9.256;2023-03-26T04:24:46;96292.03;;;6.55;100.00
12178;BME280;6152;48.728;9.256;2023-03-26T04:27:16;96289.56;;;6.54;100.00
12178;BME280;6152;48.728;9.256;2023-03-26T04:29:45;96283.38;;;6.56;100.00
12178;BME280;6152;48.728;9.256;2023-03-26T04:32:23;96269.53;;;6.57;100.00
12178;BME280;6152;48.728;9.256;2023-03-26T04:34:51;96269.53;;;6.57;100.00
12178;BME280;6152;48.728;9.256;2023-03-26T04:37:31;96266.13;;;6.57;100.00
12178;BME280;6152;48.728;9.256;2023-03-26T04:40:06;96263.59;;;6.55;100.00
12178;BME280;6152;48.728;9.256;2023-03-26T04:42:36;96249.03;;;6.54;100.00
12178;BME280;6152;48.728;9.256;2023-03-26T04:45:07;96249.03;;;6.54;100.00
12178;BME280;6152;48.728;9.256;2023-03-26T04:47:34;96247.38;;;6.53;100.00
12178;BME280;6152;48.728;9.256;2023-03-26T04:50:03;96245.50;;;6.55;100.00
12178;BME280;6152;48.728;9.256;2023-03-26T04:52:30;96242.19;;;6.53;100.00
12178;BME280;6152;48.728;9.256;2023-03-26T04:54:56;96235.34;;;6.52;100.00
12178;BME280;6152;48.728;9.256;2023-03-26T04:57:36;96218.22;;;6.51;100.00
12178;BME280;6152;48.728;9.256;2023-03-26T05:00:07;96221.72;;;6.50;100.00
12178;BME280;6152;48.728;9.256;2023-03-26T05:02:41;96227.25;;;6.44;100.00
12178;BME280;6152;48.728;9.256;2023-03-26T05:05:08;96227.25;;;6.44;100.00
12178;BME280;6152;48.728;9.256;2023-03-26T05:07:35;96232.03;;;6.50;100.00
12178;BME280;6152;48.728;9.256;2023-03-26T05:10:01;96232.22;;;6.47;100.00
12178;BME280;6152;48.728;9.256;2023-03-26T05:12:29;96230.63;;;6.45;100.00
12178;BME280;6152;48.728;9.256;2023-03-26T05:14:55;96229.97;;;6.41;100.00
12178;BME280;6152;48.728;9.256;2023-03-26T05:17:22;96232.75;;;6.38;100.00
12178;BME280;6152;48.728;9.256;2023-03-26T05:19:50;96224.16;;;6.38;100.00
12178;BME280;6152;48.728;9.256;2023-03-26T05:22:17;96223.53;;;6.34;100.00
12178;BME280;6152;48.728;9.256;2023-03-26T05:24:43;96221.09;;;6.31;100.00
12178;BME280;6152;48.728;9.256;2023-03-26T05:27:14;96202.28;;;6.29;100.00
12178;BME280;6152;48.728;9.256;2023-03-26T05:29:42;96201.94;;;6.35;100.00
12178;BME280;6152;48.728;9.256;2023-03-26T05:32:09;96183.75;;;6.37;100.00
12178;BME280;6152;48.728;9.256;2023-03-26T05:34:37;96191.41;;;6.38;100.00
12178;BME280;6152;48.728;9.256;2023-03-26T05:37:04;96170.72;;;6.38;100.00
12178;BME280;6152;48.728;9.256;2023-03-26T05:39:32;96179.25;;;6.40;100.00
12178;BME280;6152;48.728;9.256;2023-03-26T05:41:58;96179.44;;;6.37;100.00
12178;BME280;6152;48.728;9.256;2023-03-26T05:44:24;96180.16;;;6.39;100.00
12178;BME280;6152;48.728;9.256;2023-03-26T05:46:50;96175.56;;;6.44;100.00
12178;BME280;6152;48.728;9.256;2023-03-26T05:49:16;96176.88;;;6.51;100.00
12178;BME280;6152;48.728;9.256;2023-03-26T05:51:42;96173.16;;;6.55;100.00
12178;BME280;6152;48.728;9.256;2023-03-26T05:54:08;96173.16;;;6.55;100.00
12178;BME280;6152;48.728;9.256;2023-03-26T05:56:35;96164.47;;;6.56;100.00
12178;BME280;6152;48.728;9.256;2023-03-26T05:59:01;96161.81;;;6.58;100.00
12178;BME280;6152;48.728;9.256;2023-03-26T06:01:27;96141.41;;;6.68;100.00
12178;BME280;6152;48.728;9.256;2023-03-26T06:03:54;96135.13;;;6.72;100.00
12178;BME280;6152;48.728;9.256;2023-03-26T06:06:20;96133.72;;;6.66;100.00
12178;BME280;6152;48.728;9.256;2023-03-26T06:08:49;96132.91;;;6.66;100.00
12178;BME280;6152;48.728;9.256;2023-03-26T06:11:19;96106.31;;;6.64;100.00
12178;BME280;6152;48.728;9.256;2023-03-26T06:13:46;96107.25;;;6.63;100.00
12178;BME280;6152;48.728;9.256;2023-03-26T06:16:13;96096.19;;;6.60;100.00
12178;BME280;6152;48.728;9.256;2023-03-26T06:18:40;96100.44;;;6.62;100.00
12178;BME280;6152;48.728;9.256;2023-03-26T06:21:06;96098.75;;;6.60;100.00
12178;BME280;6152;48.728;9.256;2023-03-26T06:23:32;96098.66;;;6.62;100.00
12178;BME280;6152;48.728;9.256;2023-03-26T06:25:59;96096.91;;;6.63;100.00
12178;BME280;6152;48.728;9.256;2023-03-26T06:28:26;96086.84;;;6.72;100.00
12178;BME280;6152;48.728;9.256;2023-03-26T06:30:52;96086.00;;;6.72;100.00
12178;BME280;6152;48.728;9.256;2023-03-26T06:33:18;96080.53;;;6.76;100.00
12178;BME280;6152;48.728;9.256;2023-03-26T06:35:44;96081.72;;;6.85;100.00
12178;BME280;6152;48.728;9.256;2023-03-26T06:38:11;96086.72;;;6.88;100.00
12178;BME280;6152;48.728;9.256;2023-03-26T06:40:37;96072.94;;;6.87;100.00
12178;BME280;6152;48.728;9.256;2023-03-26T06:43:04;96071.19;;;6.88;100.00
12178;BME280;6152;48.728;9.256;2023-03-26T06:45:32;96074.84;;;6.98;100.00
12178;BME280;6152;48.728;9.256;2023-03-26T06:47:58;96070.25;;;7.03;100.00
12178;BME280;6152;48.728;9.256;2023-03-26T06:50:25;96071.53;;;7.10;100.00
12178;BME280;6152;48.728;9.256;2023-03-26T06:52:53;96061.72;;;7.01;100.00
12178;BME280;6152;48.728;9.256;2023-03-26T06:55:19;96050.75;;;6.97;100.00
12178;BME280;6152;48.728;9.256;2023-03-26T06:57:50;96057.22;;;6.90;100.00
12178;BME280;6152;48.728;9.256;2023-03-26T07:00:17;96051.78;;;6.95;100.00
12178;BME280;6152;48.728;9.256;2023-03-26T07:02:44;96048.28;;;6.96;100.00
12178;BME280;6152;48.728;9.256;2023-03-26T07:05:10;96052.53;;;6.83;100.00
12178;BME280;6152;48.728;9.256;2023-03-26T07:07:36;96040.25;;;6.86;100.00
12178;BME280;6152;48.728;9.256;2023-03-26T07:10:04;96024.44;;;6.91;100.00
12178;BME280;6152;48.728;9.256;2023-03-26T07:12:30;96023.97;;;6.98;100.00
12178;BME280;6152;48.728;9.256;2023-03-26T07:14:56;96018.69;;;7.00;100.00
12178;BME280;6152;48.728;9.256;2023-03-26T07:17:23;96019.31;;;7.03;100.00
12178;BME280;6152;48.728;9.256;2023-03-26T07:19:49;96007.56;;;7.12;100.00
12178;BME280;6152;48.728;9.256;2023-03-26T07:22:22;96004.56;;;7.18;100.00
12178;BME280;6152;48.728;9.256;2023-03-26T07:24:49;95990.50;;;7.22;100.00
12178;BME280;6152;48.728;9.256;2023-03-26T07:27:45;95991.84;;;7.28;100.00
12178;BME280;6152;48.728;9.256;2023-03-26T07:34:36;95995.00;;;7.45;100.00
12178;BME280;6152;48.728;9.256;2023-03-26T07:42:05;95983.25;;;7.15;100.00
12178;BME280;6152;48.728;9.256;2023-03-26T07:47:20;95965.47;;;6.83;100.00
12178;BME280;6152;48.728;9.256;2023-03-26T07:49:52;95969.81;;;6.83;100.00
12178;BME280;6152;48.728;9.256;2023-03-26T07:52:19;95953.38;;;6.84;100.00
12178;BME280;6152;48.728;9.256;2023-03-26T07:54:45;95940.28;;;6.73;100.00
12178;BME280;6152;48.728;9.256;2023-03-26T08:00:06;95950.78;;;6.84;100.00
12178;BME280;6152;48.728;9.256;2023-03-26T08:02:53;95948.31;;;6.82;100.00
12178;BME280;6152;48.728;9.256;2023-03-26T08:05:36;95939.41;;;6.86;100.00
12178;BME280;6152;48.728;9.256;2023-03-26T08:08:44;95941.69;;;6.91;100.00
12178;BME280;6152;48.728;9.256;2023-03-26T08:17:07;95947.41;;;6.96;100.00
12178;BME280;6152;48.728;9.256;2023-03-26T08:22:37;95920.56;;;6.72;100.00
12178;BME280;6152;48.728;9.256;2023-03-26T08:27:53;95918.75;;;6.59;100.00
12178;BME280;6152;48.728;9.256;2023-03-26T08:30:24;95922.44;;;6.55;100.00
12178;BME280;6152;48.728;9.256;2023-03-26T08:33:11;95920.69;;;6.56;100.00
12178;BME280;6152;48.728;9.256;2023-03-26T08:35:38;95910.56;;;6.53;100.00
12178;BME280;6152;48.728;9.256;2023-03-26T08:38:08;95902.81;;;6.53;100.00
12178;BME280;6152;48.728;9.256;2023-03-26T08:43:58;95896.09;;;6.50;100.00
12178;BME280;6152;48.728;9.256;2023-03-26T08:55:19;95887.53;;;7.02;100.00
12178;BME280;6152;48.728;9.256;2023-03-26T08:58:25;95891.28;;;7.23;100.00
12178;BME280;6152;48.728;9.256;2023-03-26T09:06:25;95901.44;;;7.51;100.00
12178;BME280;6152;48.728;9.256;2023-03-26T09:20:22;95897.13;;;8.25;100.00
12178;BME280;6152;48.728;9.256;2023-03-26T09:28:39;95915.53;;;8.58;100.00
12178;BME280;6152;48.728;9.256;2023-03-26T09:39:38;95896.34;;;10.08;100.00
12178;BME280;6152;48.728;9.256;2023-03-26T09:45:07;95891.84;;;12.49;100.00
12178;BME280;6152;48.728;9.256;2023-03-26T09:50:25;95881.00;;;16.42;100.00
12178;BME280;6152;48.728;9.256;2023-03-26T09:56:18;95870.03;;;18.32;75.60
12178;BME280;6152;48.728;9.256;2023-03-26T09:59:15;95860.56;;;19.30;61.26
12178;BME280;6152;48.728;9.256;2023-03-26T10:05:24;95860.69;;;19.37;55.40
12178;BME280;6152;48.728;9.256;2023-03-26T10:10:53;95853.72;;;18.98;61.36
12178;BME280;6152;48.728;9.256;2023-03-26T10:13:47;95861.31;;;16.88;67.87
12178;BME280;6152;48.728;9.256;2023-03-26T10:16:47;95871.66;;;15.72;73.98
12178;BME280;6152;48.728;9.256;2023-03-26T10:28:00;95857.22;;;14.53;94.04
12178;BME280;6152;48.728;9.256;2023-03-26T10:36:35;95846.88;;;16.00;71.13
12178;BME280;6152;48.728;9.256;2023-03-26T10:39:05;95848.19;;;15.96;76.19
12178;BME280;6152;48.728;9.256;2023-03-26T10:52:22;95849.66;;;18.26;53.09
12178;BME280;6152;48.728;9.256;2023-03-26T10:59:56;95864.22;;;20.33;42.54
12178;BME280;6152;48.728;9.256;2023-03-26T11:02:28;95862.47;;;20.91;41.82
12178;BME280;6152;48.728;9.256;2023-03-26T11:05:43;95877.31;;;20.41;40.24
12178;BME280;6152;48.728;9.256;2023-03-26T11:13:39;95866.00;;;19.89;40.92
12178;BME280;6152;48.728;9.256;2023-03-26T11:22:19;95856.97;;;22.87;35.37
12178;BME280;6152;48.728;9.256;2023-03-26T11:27:50;95849.34;;;21.40;35.33
12178;BME280;6152;48.728;9.256;2023-03-26T11:30:28;95843.88;;;20.19;37.84
12178;BME280;6152;48.728;9.256;2023-03-26T11:33:04;95844.84;;;20.98;36.84
12178;BME280;6152;48.728;9.256;2023-03-26T11:35:36;95830.03;;;21.03;36.32
12178;BME280;6152;48.728;9.256;2023-03-26T11:38:15;95836.16;;;20.03;37.91
12178;BME280;6152;48.728;9.256;2023-03-26T11:40:45;95836.56;;;20.86;35.49
12178;BME280;6152;48.728;9.256;2023-03-26T11:43:17;95836.19;;;22.97;33.21
12178;BME280;6152;48.728;9.256;2023-03-26T11:45:47;95830.41;;;22.26;33.29
12178;BME280;6152;48.728;9.256;2023-03-26T11:48:25;95826.84;;;22.06;33.58
12178;BME280;6152;48.728;9.256;2023-03-26T11:51:03;95826.81;;;21.08;36.21
12178;BME280;6152;48.728;9.256;2023-03-26T11:53:33;95826.53;;;21.17;36.03
12178;BME280;6152;48.728;9.256;2023-03-26T12:02:40;95819.53;;;20.53;35.62
12178;BME280;6152;48.728;9.256;2023-03-26T12:10:05;95833.84;;;18.88;34.19
12178;BME280;6152;48.728;9.256;2023-03-26T12:12:37;95818.72;;;18.20;36.32
12178;BME280;6152;48.728;9.256;2023-03-26T12:15:14;95811.16;;;18.17;36.38
12178;BME280;6152;48.728;9.256;2023-03-26T12:17:41;95817.25;;;18.48;35.03
12178;BME280;6152;48.728;9.256;2023-03-26T12:20:30;95802.94;;;18.20;36.50
12178;BME280;6152;48.728;9.256;2023-03-26T12:22:59;95811.63;;;19.50;34.68
12178;BME280;6152;48.728;9.256;2023-03-26T12:25:30;95808.09;;;19.58;34.60
12178;BME280;6152;48.728;9.256;2023-03-26T12:28:00;95816.47;;;19.91;33.50
12178;BME280;6152;48.728;9.256;2023-03-26T12:30:34;95801.16;;;20.66;32.33
12178;BME280;6152;48.728;9.256;2023-03-26T12:33:13;95794.53;;;20.55;33.33
12178;BME280;6152;48.728;9.256;2023-03-26T12:35:41;95803.06;;;22.26;31.98
12178;BME280;6152;48.728;9.256;2023-03-26T12:38:30;95813.38;;;21.80;30.89
12178;BME280;6152;48.728;9.256;2023-03-26T12:41:09;95797.94;;;21.55;30.08
12178;BME280;6152;48.728;9.256;2023-03-26T12:43:40;95800.50;;;20.79;31.66
12178;BME280;6152;48.728;9.256;2023-03-26T12:46:24;95796.56;;;20.53;32.01
12178;BME280;6152;48.728;9.256;2023-03-26T12:48:55;95792.38;;;18.82;33.67
12178;BME280;6152;48.728;9.256;2023-03-26T13:16:33;95761.50;;;15.72;40.39
12178;BME280;6152;48.728;9.256;2023-03-26T13:19:27;95746.78;;;15.87;41.10
12178;BME280;6152;48.728;9.256;2023-03-26T13:24:36;95759.66;;;15.64;40.23
12178;BME280;6152;48.728;9.256;2023-03-26T13:30:17;95752.78;;;15.37;39.35
12178;BME280;6152;48.728;9.256;2023-03-26T13:35:41;95738.22;;;15.43;38.79
12178;BME280;6152;48.728;9.256;2023-03-26T13:38:22;95740.75;;;15.52;39.28
12178;BME280;6152;48.728;9.256;2023-03-26T13:41:16;95732.84;;;15.86;38.65
12178;BME280;6152;48.728;9.256;2023-03-26T13:46:50;95728.00;;;15.57;39.28
12178;BME280;6152;48.728;9.256;2023-03-26T13:49:31;95725.53;;;15.56;40.44
12178;BME280;6152;48.728;9.256;2023-03-26T13:55:06;95725.91;;;15.09;39.47
12178;BME280;6152;48.728;9.256;2023-03-26T13:57:44;95717.63;;;14.71;40.11
12178;BME280;6152;48.728;9.256;2023-03-26T14:00:18;95713.16;;;14.45;40.33
12178;BME280;6152;48.728;9.256;2023-03-26T14:02:52;95703.19;;;14.49;40.73
12178;BME280;6152;48.728;9.256;2023-03-26T14:05:32;95711.84;;;14.32;40.90
12178;BME280;6152;48.728;9.256;2023-03-26T14:08:03;95702.44;;;14.21;41.08
12178;BME280;6152;48.728;9.256;2023-03-26T14:10:39;95707.72;;;13.94;42.27
12178;BME280;6152;48.728;9.256;2023-03-26T14:16:00;95702.94;;;13.72;42.59
12178;BME280;6152;48.728;9.256;2023-03-26T14:18:51;95709.31;;;13.59;43.49
12178;BME280;6152;48.728;9.256;2023-03-26T14:21:43;95712.34;;;13.28;55.38
12178;BME280;6152;48.728;9.256;2023-03-26T14:26:56;95718.16;;;12.37;69.48
12178;BME280;6152;48.728;9.256;2023-03-26T14:29:39;95739.69;;;12.10;74.51
12178;BME280;6152;48.728;9.256;2023-03-26T14:32:20;95760.38;;;11.92;84.45
12178;BME280;6152;48.728;9.256;2023-03-26T14:41:00;95771.63;;;9.97;100.00
12178;BME280;6152;48.728;9.256;2023-03-26T14:47:05;95796.84;;;9.19;100.00
12178;BME280;6152;48.728;9.256;2023-03-26T14:49:28;95777.69;;;8.97;100.00
12178;BME280;6152;48.728;9.256;2023-03-26T14:54:30;95763.00;;;8.63;100.00
12178;BME280;6152;48.728;9.256;2023-03-26T14:57:20;95767.28;;;8.64;100.00
12178;BME280;6152;48.728;9.256;2023-03-26T15:12:05;95782.69;;;9.23;100.00
12178;BME280;6152;48.728;9.256;2023-03-26T15:20:43;95805.34;;;9.43;100.00
12178;BME280;6152;48.728;9.256;2023-03-26T15:31:56;95801.22;;;9.40;100.00
12178;BME280;6152;48.728;9.256;2023-03-26T15:34:52;95809.00;;;9.29;100.00
12178;BME280;6152;48.728;9.256;2023-03-26T15:56:43;95808.75;;;7.93;100.00
12178;BME280;6152;48.728;9.256;2023-03-26T15:59:17;95807.25;;;7.78;100.00
12178;BME280;6152;48.728;9.256;2023-03-26T16:07:12;95809.88;;;7.52;100.00
12178;BME280;6152;48.728;9.256;2023-03-26T16:10:12;95798.69;;;7.52;100.00
12178;BME280;6152;48.728;9.256;2023-03-26T16:18:33;95810.34;;;7.34;100.00
12178;BME280;6152;48.728;9.256;2023-03-26T16:24:17;95819.88;;;7.33;100.00
12178;BME280;6152;48.728;9.256;2023-03-26T16:29:19;95831.44;;;7.15;100.00
12178;BME280;6152;48.728;9.256;2023-03-26T16:54:06;95849.34;;;6.93;100.00
12178;BME280;6152;48.728;9.256;2023-03-26T16:59:48;95847.97;;;6.87;100.00
12178;BME280;6152;48.728;9.256;2023-03-26T17:02:46;95854.19;;;6.85;100.00
12178;BME280;6152;48.728;9.256;2023-03-26T17:05:35;95853.78;;;6.78;100.00
12178;BME280;6152;48.728;9.256;2023-03-26T17:08:17;95858.13;;;6.78;100.00
12178;BME280;6152;48.728;9.256;2023-03-26T17:19:50;95866.78;;;6.77;100.00
12178;BME280;6152;48.728;9.256;2023-03-26T17:33:37;95867.19;;;6.71;100.00
12178;BME280;6152;48.728;9.256;2023-03-26T17:41:14;95881.44;;;6.64;100.00
12178;BME280;6152;48.728;9.256;2023-03-26T17:43:58;95885.59;;;6.66;100.00
12178;BME280;6152;48.728;9.256;2023-03-26T17:46:41;95883.84;;;6.67;100.00
12178;BME280;6152;48.728;9.256;2023-03-26T17:51:55;95875.84;;;6.57;100.00
12178;BME280;6152;48.728;9.256;2023-03-26T17:54:43;95882.78;;;6.56;100.00
12178;BME280;6152;48.728;9.256;2023-03-26T17:59:48;95874.31;;;6.54;100.00
12178;BME280;6152;48.728;9.256;2023-03-26T18:02:19;95871.72;;;6.54;100.00
12178;BME280;6152;48.728;9.256;2023-03-26T18:04:49;95882.06;;;6.54;100.00
12178;BME280;6152;48.728;9.256;2023-03-26T18:18:30;95872.44;;;6.30;100.00
12178;BME280;6152;48.728;9.256;2023-03-26T18:20:58;95886.28;;;6.29;100.00
12178;BME280;6152;48.728;9.256;2023-03-26T18:23:45;95883.81;;;6.27;100.00
12178;BME280;6152;48.728;9.256;2023-03-26T18:26:48;95884.19;;;6.21;100.00
12178;BME280;6152;48.728;9.256;2023-03-26T18:31:58;95901.72;;;6.16;100.00
12178;BME280;6152;48.728;9.256;2023-03-26T18:34:27;95896.84;;;6.12;100.00
12178;BME280;6152;48.728;9.256;2023-03-26T18:37:13;95892.78;;;6.07;100.00
12178;BME280;6152;48.728;9.256;2023-03-26T18:42:28;95890.31;;;6.06;100.00
12178;BME280;6152;48.728;9.256;2023-03-26T18:44:56;95889.84;;;6.14;100.00
12178;BME280;6152;48.728;9.256;2023-03-26T18:47:24;95885.78;;;6.09;100.00
12178;BME280;6152;48.728;9.256;2023-03-26T18:49:52;95887.53;;;6.09;100.00
12178;BME280;6152;48.728;9.256;2023-03-26T18:52:20;95889.03;;;6.13;100.00
12178;BME280;6152;48.728;9.256;2023-03-26T18:54:50;95880.44;;;6.13;100.00
12178;BME280;6152;48.728;9.256;2023-03-26T18:57:22;95875.91;;;6.16;100.00
12178;BME280;6152;48.728;9.256;2023-03-26T18:59:50;95884.38;;;6.18;100.00
12178;BME280;6152;48.728;9.256;2023-03-26T19:02:17;95883.66;;;6.16;100.00
12178;BME280;6152;48.728;9.256;2023-03-26T19:04:47;95881.06;;;6.16;100.00
12178;BME280;6152;48.728;9.256;2023-03-26T19:07:19;95881.28;;;6.13;100.00
12178;BME280;6152;48.728;9.256;2023-03-26T19:09:48;95877.03;;;6.12;100.00
12178;BME280;6152;48.728;9.256;2023-03-26T19:12:18;95876.09;;;6.13;100.00
12178;BME280;6152;48.728;9.256;2023-03-26T19:15:00;95881.34;;;6.12;100.00
12178;BME280;6152;48.728;9.256;2023-03-26T19:17:31;95878.69;;;6.13;100.00